createdAt,value
2023-01-10T00:00:02.891Z,1003.46
2023-01-10T00:01:02.952Z,1003.51
2023-01-10T00:02:03.161Z,1003.54
2023-01-10T00:03:03.002Z,1003.52
2023-01-10T00:04:02.751Z,1003.53
2023-01-10T00:05:02.852Z,1003.59
2023-01-10T00:06:02.984Z,1003.62
2023-01-10T00:07:02.040Z,1003.67
2023-01-10T00:08:02.282Z,1003.67
2023-01-10T00:09:01.987Z,1003.69
2023-01-10T00:10:02.117Z,1003.75
2023-01-10T00:11:02.285Z,1003.76
2023-01-10T00:12:02.619Z,1003.80
2023-01-10T00:13:02.173Z,1003.85
2023-01-10T00:14:02.355Z,1003.86
2023-01-10T00:15:02.146Z,1003.87
2023-01-10T00:16:02.719Z,1003.90
2023-01-10T00:17:02.776Z,1003.97
2023-01-10T00:18:02.580Z,1003.96
2023-01-10T00:19:02.469Z,1004.03
2023-01-10T00:20:02.939Z,1004.02
2023-01-10T00:21:02.514Z,1004.09
2023-01-10T00:22:02.621Z,1004.08
2023-01-10T00:23:02.035Z,1004.10
2023-01-10T00:24:02.224Z,1004.12
2023-01-10T00:25:02.445Z,1004.16
2023-01-10T00:26:02.255Z,1004.19
2023-01-10T00:27:02.344Z,1004.16
2023-01-10T00:28:02.449Z,1004.22
2023-01-10T00:29:02.088Z,1004.25
2023-01-10T00:30:02.475Z,1004.26
2023-01-10T00:31:02.163Z,1004.28
2023-01-10T00:32:01.557Z,1004.31
2023-01-10T00:33:01.597Z,1004.36
2023-01-10T00:34:01.993Z,1004.39
2023-01-10T00:35:01.637Z,1004.40
2023-01-10T00:36:01.838Z,1004.46
2023-01-10T00:37:01.810Z,1004.46
2023-01-10T00:38:01.977Z,1004.48
2023-01-10T00:39:01.909Z,1004.50
2023-01-10T00:40:01.574Z,1004.52
2023-01-10T00:41:01.889Z,1004.58
2023-01-10T00:42:02.210Z,1004.63
2023-01-10T00:43:02.609Z,1004.63
2023-01-10T00:44:02.806Z,1004.63
2023-01-10T00:45:02.625Z,1004.62
2023-01-10T00:46:02.689Z,1004.67
2023-01-10T00:47:01.749Z,1004.69
2023-01-10T00:48:01.935Z,1004.73
2023-01-10T00:49:02.278Z,1004.76
2023-01-10T00:50:01.771Z,1004.81
2023-01-10T00:51:01.744Z,1004.88
2023-01-10T00:52:02.175Z,1004.91
2023-01-10T00:53:02.399Z,1004.90
2023-01-10T00:54:02.340Z,1004.93
2023-01-10T00:55:02.200Z,1004.97
2023-01-10T00:56:02.719Z,1004.93
2023-01-10T00:57:02.248Z,1004.95
2023-01-10T00:58:02.670Z,1004.99
2023-01-10T00:59:02.079Z,1004.99
2023-01-10T01:00:02.442Z,1004.99
2023-01-10T01:01:02.380Z,1005.04
2023-01-10T01:02:02.511Z,1005.08
2023-01-10T01:03:02.976Z,1005.10
2023-01-10T01:04:02.933Z,1005.15
2023-01-10T01:05:02.731Z,1005.14
2023-01-10T01:06:02.438Z,1005.14
2023-01-10T01:07:02.754Z,1005.17
2023-01-10T01:08:02.959Z,1005.20
2023-01-10T01:09:03.044Z,1005.21
2023-01-10T01:10:02.725Z,1005.27
2023-01-10T01:11:03.004Z,1005.30
2023-01-10T01:12:02.532Z,1005.28
2023-01-10T01:13:02.982Z,1005.32
2023-01-10T01:14:02.683Z,1005.33
2023-01-10T01:15:02.571Z,1005.35
2023-01-10T01:16:02.820Z,1005.38
2023-01-10T01:17:02.987Z,1005.43
2023-01-10T01:18:02.990Z,1005.42
2023-01-10T01:19:03.378Z,1005.46
2023-01-10T01:20:03.153Z,1005.39
2023-01-10T01:21:03.466Z,1005.41
2023-01-10T01:22:03.401Z,1005.48
2023-01-10T01:23:03.195Z,1005.45
2023-01-10T01:24:03.253Z,1005.47
2023-01-10T01:25:03.112Z,1005.53
2023-01-10T01:26:03.118Z,1005.58
2023-01-10T01:27:02.663Z,1005.59
2023-01-10T01:28:02.638Z,1005.59
2023-01-10T01:29:02.676Z,1005.64
2023-01-10T01:30:02.511Z,1005.64
2023-01-10T01:31:02.859Z,1005.62
2023-01-10T01:32:03.331Z,1005.64
2023-01-10T01:33:03.562Z,1005.67
2023-01-10T01:34:03.120Z,1005.61
2023-01-10T01:35:03.188Z,1005.66
2023-01-10T01:36:03.069Z,1005.69
2023-01-10T01:37:02.505Z,1005.71
2023-01-10T01:38:02.700Z,1005.74
2023-01-10T01:39:02.500Z,1005.77
2023-01-10T01:40:02.881Z,1005.77
2023-01-10T01:41:02.850Z,1005.82
2023-01-10T01:42:03.114Z,1005.82
2023-01-10T01:43:02.876Z,1005.81
2023-01-10T01:44:02.856Z,1005.87
2023-01-10T01:45:03.065Z,1005.87
2023-01-10T01:46:03.242Z,1005.91
2023-01-10T01:47:02.188Z,1005.91
2023-01-10T01:48:02.717Z,1005.95
2023-01-10T01:49:02.617Z,1005.98
2023-01-10T01:50:02.381Z,1005.95
2023-01-10T01:51:02.701Z,1005.94
2023-01-10T01:52:02.662Z,1005.91
2023-01-10T01:53:02.284Z,1005.92
2023-01-10T01:54:02.288Z,1005.90
2023-01-10T01:55:02.747Z,1005.98
2023-01-10T01:56:02.217Z,1005.98
2023-01-10T01:57:02.915Z,1005.99
2023-01-10T01:58:02.823Z,1005.98
2023-01-10T01:59:02.805Z,1006.04
2023-01-10T02:00:02.689Z,1006.05
2023-01-10T02:01:02.616Z,1006.03
2023-01-10T02:02:01.761Z,1006.05
2023-01-10T02:03:03.156Z,1006.10
2023-01-10T02:04:01.738Z,1006.08
2023-01-10T02:05:01.704Z,1006.14
2023-01-10T02:06:01.969Z,1006.13
2023-01-10T02:07:02.681Z,1006.15
2023-01-10T02:08:02.502Z,1006.14
2023-01-10T02:09:02.103Z,1006.16
2023-01-10T02:10:02.245Z,1006.17
2023-01-10T02:11:02.622Z,1006.13
2023-01-10T02:12:02.988Z,1006.13
2023-01-10T02:13:02.540Z,1006.20
2023-01-10T02:14:02.544Z,1006.16
2023-01-10T02:15:02.659Z,1006.18
2023-01-10T02:16:02.905Z,1006.18
2023-01-10T02:17:02.340Z,1006.21
2023-01-10T02:18:01.978Z,1006.19
2023-01-10T02:19:02.257Z,1006.18
2023-01-10T02:20:02.277Z,1006.18
2023-01-10T02:21:01.845Z,1006.16
2023-01-10T02:22:02.117Z,1006.20
2023-01-10T02:23:02.442Z,1006.16
2023-01-10T02:24:02.293Z,1006.15
2023-01-10T02:25:02.012Z,1006.20
2023-01-10T02:26:01.870Z,1006.19
2023-01-10T02:27:01.853Z,1006.18
2023-01-10T02:28:01.709Z,1006.19
2023-01-10T02:29:01.940Z,1006.25
2023-01-10T02:30:01.968Z,1006.24
2023-01-10T02:31:01.609Z,1006.26
2023-01-10T02:32:01.802Z,1006.29
2023-01-10T02:33:05.427Z,1006.32
2023-01-10T02:34:02.323Z,1006.35
2023-01-10T02:35:01.994Z,1006.37
2023-01-10T02:36:01.915Z,1006.40
2023-01-10T02:37:01.963Z,1006.41
2023-01-10T02:38:02.113Z,1006.44
2023-01-10T02:39:01.574Z,1006.48
2023-01-10T02:40:01.945Z,1006.48
2023-01-10T02:41:01.495Z,1006.50
2023-01-10T02:42:02.630Z,1006.56
2023-01-10T02:43:02.366Z,1006.54
2023-01-10T02:44:02.710Z,1006.53
2023-01-10T02:45:02.304Z,1006.53
2023-01-10T02:46:02.105Z,1006.50
2023-01-10T02:47:01.751Z,1006.51
2023-01-10T02:48:02.073Z,1006.48
2023-01-10T02:49:02.050Z,1006.46
2023-01-10T02:50:02.008Z,1006.42
2023-01-10T02:51:02.135Z,1006.44
2023-01-10T02:52:02.620Z,1006.44
2023-01-10T02:53:02.369Z,1006.46
2023-01-10T02:54:02.159Z,1006.50
2023-01-10T02:55:02.016Z,1006.48
2023-01-10T02:56:02.524Z,1006.55
2023-01-10T02:57:02.392Z,1006.56
2023-01-10T02:58:02.815Z,1006.59
2023-01-10T02:59:02.323Z,1006.58
2023-01-10T03:00:02.297Z,1006.56
2023-01-10T03:01:02.921Z,1006.55
2023-01-10T03:02:03.053Z,1006.54
2023-01-10T03:03:02.378Z,1006.60
2023-01-10T03:04:02.905Z,1006.62
2023-01-10T03:05:02.745Z,1006.61
2023-01-10T03:06:02.619Z,1006.65
2023-01-10T03:07:03.104Z,1006.65
2023-01-10T03:08:03.427Z,1006.63
2023-01-10T03:09:03.504Z,1006.65
2023-01-10T03:10:03.492Z,1006.67
2023-01-10T03:11:03.564Z,1006.63
2023-01-10T03:12:03.116Z,1006.65
2023-01-10T03:13:02.731Z,1006.68
2023-01-10T03:14:03.080Z,1006.67
2023-01-10T03:15:02.513Z,1006.71
2023-01-10T03:16:03.010Z,1006.70
2023-01-10T03:17:04.761Z,1006.76
2023-01-10T03:18:02.930Z,1006.75
2023-01-10T03:19:03.320Z,1006.75
2023-01-10T03:20:03.157Z,1006.80
2023-01-10T03:21:02.792Z,1006.77
2023-01-10T03:22:02.674Z,1006.78
2023-01-10T03:23:02.576Z,1006.81
2023-01-10T03:24:02.850Z,1006.78
2023-01-10T03:25:02.693Z,1006.81
2023-01-10T03:26:02.326Z,1006.82
2023-01-10T03:27:03.159Z,1006.86
2023-01-10T03:28:02.762Z,1006.89
2023-01-10T03:29:02.977Z,1006.90
2023-01-10T03:30:02.747Z,1006.94
2023-01-10T03:31:03.267Z,1006.94
2023-01-10T03:32:02.865Z,1006.93
2023-01-10T03:33:03.226Z,1006.98
2023-01-10T03:34:02.877Z,1006.98
2023-01-10T03:35:03.237Z,1007.00
2023-01-10T03:36:03.355Z,1007.00
2023-01-10T03:37:02.795Z,1006.99
2023-01-10T03:38:02.982Z,1007.07
2023-01-10T03:39:02.484Z,1007.07
2023-01-10T03:40:02.955Z,1007.09
2023-01-10T03:41:02.714Z,1007.12
2023-01-10T03:42:02.901Z,1007.17
2023-01-10T03:43:03.215Z,1007.16
2023-01-10T03:44:03.089Z,1007.21
2023-01-10T03:45:03.186Z,1007.22
2023-01-10T03:46:03.402Z,1007.15
2023-01-10T03:47:03.483Z,1007.20
2023-01-10T03:48:02.957Z,1007.17
2023-01-10T03:49:03.284Z,1007.17
2023-01-10T03:50:02.956Z,1007.18
2023-01-10T03:51:03.474Z,1007.22
2023-01-10T03:52:02.523Z,1007.23
2023-01-10T03:53:02.757Z,1007.23
2023-01-10T03:54:02.545Z,1007.22
2023-01-10T03:55:02.419Z,1007.24
2023-01-10T03:56:02.363Z,1007.28
2023-01-10T03:57:03.010Z,1007.27
2023-01-10T03:58:02.645Z,1007.24
2023-01-10T03:59:03.069Z,1007.33
2023-01-10T04:00:02.939Z,1007.32
2023-01-10T04:01:02.910Z,1007.36
2023-01-10T04:02:02.533Z,1007.39
2023-01-10T04:03:02.137Z,1007.44
2023-01-10T04:04:02.480Z,1007.45
2023-01-10T04:05:02.234Z,1007.47
2023-01-10T04:06:02.207Z,1007.51
2023-01-10T04:07:02.629Z,1007.52
2023-01-10T04:08:02.790Z,1007.56
2023-01-10T04:09:02.859Z,1007.59
2023-01-10T04:10:02.598Z,1007.58
2023-01-10T04:11:02.750Z,1007.63
2023-01-10T04:12:03.046Z,1007.68
2023-01-10T04:13:02.468Z,1007.67
2023-01-10T04:14:02.885Z,1007.71
2023-01-10T04:15:03.171Z,1007.75
2023-01-10T04:16:02.830Z,1007.82
2023-01-10T04:17:02.489Z,1007.80
2023-01-10T04:18:02.373Z,1007.83
2023-01-10T04:19:02.324Z,1007.82
2023-01-10T04:20:02.232Z,1007.84
2023-01-10T04:21:02.156Z,1007.86
2023-01-10T04:22:02.413Z,1007.88
2023-01-10T04:23:02.271Z,1007.92
2023-01-10T04:24:02.283Z,1007.90
2023-01-10T04:25:02.291Z,1007.90
2023-01-10T04:26:02.549Z,1007.91
2023-01-10T04:27:02.659Z,1007.95
2023-01-10T04:28:02.627Z,1007.95
2023-01-10T04:29:02.423Z,1007.96
2023-01-10T04:30:02.359Z,1008.01
2023-01-10T04:31:02.666Z,1007.98
2023-01-10T04:32:02.350Z,1007.98
2023-01-10T04:33:02.304Z,1007.98
2023-01-10T04:34:01.821Z,1008.02
2023-01-10T04:35:01.785Z,1008.01
2023-01-10T04:36:02.177Z,1008.02
2023-01-10T04:37:02.189Z,1007.99
2023-01-10T04:38:02.556Z,1007.99
2023-01-10T04:39:02.421Z,1008.00
2023-01-10T04:40:02.224Z,1007.98
2023-01-10T04:41:02.092Z,1008.01
2023-01-10T04:42:02.583Z,1008.06
2023-01-10T04:43:02.652Z,1008.04
2023-01-10T04:44:02.531Z,1008.09
2023-01-10T04:45:02.646Z,1008.12
2023-01-10T04:46:02.535Z,1008.12
2023-01-10T04:47:02.271Z,1008.14
2023-01-10T04:48:02.347Z,1008.11
2023-01-10T04:49:02.567Z,1008.18
2023-01-10T04:50:02.022Z,1008.14
2023-01-10T04:51:02.320Z,1008.16
2023-01-10T04:52:02.253Z,1008.16
2023-01-10T04:53:02.629Z,1008.18
2023-01-10T04:54:02.274Z,1008.18
2023-01-10T04:55:02.821Z,1008.20
2023-01-10T04:56:02.182Z,1008.14
2023-01-10T04:57:02.867Z,1008.17
2023-01-10T04:58:02.758Z,1008.16
2023-01-10T04:59:02.746Z,1008.14
2023-01-10T05:00:02.488Z,1008.17
2023-01-10T05:01:02.438Z,1008.19
2023-01-10T05:02:03.332Z,1008.18
2023-01-10T05:03:02.862Z,1008.23
2023-01-10T05:04:02.969Z,1008.22
2023-01-10T05:05:02.712Z,1008.25
2023-01-10T05:06:03.051Z,1008.23
2023-01-10T05:07:02.634Z,1008.28
2023-01-10T05:08:02.833Z,1008.31
2023-01-10T05:09:02.758Z,1008.31
2023-01-10T05:10:02.522Z,1008.31
2023-01-10T05:11:02.489Z,1008.35
2023-01-10T05:12:02.963Z,1008.42
2023-01-10T05:13:02.909Z,1008.36
2023-01-10T05:14:02.742Z,1008.40
2023-01-10T05:15:02.721Z,1008.38
2023-01-10T05:16:02.926Z,1008.38
2023-01-10T05:17:03.146Z,1008.37
2023-01-10T05:18:03.015Z,1008.39
2023-01-10T05:19:02.826Z,1008.38
2023-01-10T05:20:03.400Z,1008.42
2023-01-10T05:21:03.305Z,1008.44
2023-01-10T05:22:03.732Z,1008.50
2023-01-10T05:23:03.411Z,1008.54
2023-01-10T05:24:03.351Z,1008.55
2023-01-10T05:25:03.907Z,1008.58
2023-01-10T05:26:03.436Z,1008.57
2023-01-10T05:27:03.147Z,1008.59
2023-01-10T05:28:02.998Z,1008.56
2023-01-10T05:29:02.956Z,1008.58
2023-01-10T05:30:03.332Z,1008.61
2023-01-10T05:31:02.776Z,1008.58
2023-01-10T05:32:03.130Z,1008.63
2023-01-10T05:33:02.823Z,1008.64
2023-01-10T05:34:02.509Z,1008.65
2023-01-10T05:35:02.584Z,1008.69
2023-01-10T05:36:02.759Z,1008.68
2023-01-10T05:37:02.777Z,1008.65
2023-01-10T05:38:02.707Z,1008.65
2023-01-10T05:39:02.700Z,1008.62
2023-01-10T05:40:02.730Z,1008.64
2023-01-10T05:41:02.861Z,1008.64
2023-01-10T05:42:02.998Z,1008.60
2023-01-10T05:43:03.045Z,1008.61
2023-01-10T05:44:03.297Z,1008.59
2023-01-10T05:45:02.894Z,1008.57
2023-01-10T05:46:03.193Z,1008.59
2023-01-10T05:47:02.163Z,1008.58
2023-01-10T05:48:02.349Z,1008.57
2023-01-10T05:49:02.573Z,1008.62
2023-01-10T05:50:02.304Z,1008.61
2023-01-10T05:51:02.287Z,1008.57
2023-01-10T05:52:03.364Z,1008.61
2023-01-10T05:53:03.422Z,1008.62
2023-01-10T05:54:02.892Z,1008.69
2023-01-10T05:55:03.325Z,1008.70
2023-01-10T05:56:03.111Z,1008.75
2023-01-10T05:57:02.695Z,1008.80
2023-01-10T05:58:02.371Z,1008.86
2023-01-10T05:59:14.005Z,1008.87
2023-01-10T06:00:04.944Z,1008.92
2023-01-10T06:01:02.443Z,1008.96
2023-01-10T06:02:03.105Z,1009.03
2023-01-10T06:03:03.261Z,1009.03
2023-01-10T06:04:02.654Z,1009.06
2023-01-10T06:05:02.735Z,1009.01
2023-01-10T06:06:03.077Z,1009.03
2023-01-10T06:07:02.435Z,1008.97
2023-01-10T06:08:02.207Z,1008.96
2023-01-10T06:09:02.371Z,1008.89
2023-01-10T06:10:02.379Z,1008.85
2023-01-10T06:11:02.340Z,1008.82
2023-01-10T06:12:02.565Z,1008.78
2023-01-10T06:13:02.683Z,1008.76
2023-01-10T06:14:02.612Z,1008.70
2023-01-10T06:15:03.044Z,1008.68
2023-01-10T06:16:02.607Z,1008.71
2023-01-10T06:17:02.202Z,1008.73
2023-01-10T06:18:02.496Z,1008.75
2023-01-10T06:19:02.595Z,1008.82
2023-01-10T06:20:02.577Z,1008.87
2023-01-10T06:21:02.519Z,1008.91
2023-01-10T06:22:02.659Z,1008.99
2023-01-10T06:23:02.375Z,1009.05
2023-01-10T06:24:02.700Z,1009.09
2023-01-10T06:25:02.718Z,1009.13
2023-01-10T06:26:02.894Z,1009.18
2023-01-10T06:27:02.515Z,1009.19
2023-01-10T06:28:02.088Z,1009.21
2023-01-10T06:29:02.009Z,1009.27
2023-01-10T06:30:02.065Z,1009.26
2023-01-10T06:31:02.340Z,1009.34
2023-01-10T06:32:02.197Z,1009.34
2023-01-10T06:33:02.425Z,1009.41
2023-01-10T06:34:02.252Z,1009.46
2023-01-10T06:35:02.184Z,1009.49
2023-01-10T06:36:02.333Z,1009.53
2023-01-10T06:37:03.020Z,1009.59
2023-01-10T06:38:02.452Z,1009.53
2023-01-10T06:39:02.969Z,1009.59
2023-01-10T06:40:02.477Z,1009.65
2023-01-10T06:41:02.693Z,1009.64
2023-01-10T06:42:02.251Z,1009.66
2023-01-10T06:43:02.331Z,1009.59
2023-01-10T06:44:02.026Z,1009.58
2023-01-10T06:45:02.202Z,1009.58
2023-01-10T06:46:02.130Z,1009.60
2023-01-10T06:47:02.336Z,1009.62
2023-01-10T06:48:01.813Z,1009.67
2023-01-10T06:49:01.947Z,1009.68
2023-01-10T06:50:02.356Z,1009.76
2023-01-10T06:51:01.979Z,1009.80
2023-01-10T06:52:02.069Z,1009.87
2023-01-10T06:53:01.902Z,1009.80
2023-01-10T06:54:02.075Z,1009.79
2023-01-10T06:55:01.956Z,1009.81
2023-01-10T06:56:02.555Z,1009.81
2023-01-10T06:57:02.163Z,1009.89
2023-01-10T06:58:01.995Z,1009.91
2023-01-10T06:59:02.001Z,1009.90
2023-01-10T07:00:02.265Z,1009.92
2023-01-10T07:01:02.156Z,1009.88
2023-01-10T07:02:02.422Z,1009.84
2023-01-10T07:03:02.886Z,1009.84
2023-01-10T07:04:02.473Z,1009.85
2023-01-10T07:05:02.868Z,1009.88
2023-01-10T07:06:02.332Z,1009.92
2023-01-10T07:07:03.405Z,1009.89
2023-01-10T07:08:02.989Z,1009.92
2023-01-10T07:09:03.545Z,1009.90
2023-01-10T07:10:03.079Z,1009.92
2023-01-10T07:11:03.921Z,1009.88
2023-01-10T07:12:02.498Z,1009.88
2023-01-10T07:13:02.409Z,1009.90
2023-01-10T07:14:02.372Z,1009.90
2023-01-10T07:15:02.492Z,1009.90
2023-01-10T07:16:02.743Z,1009.93
2023-01-10T07:17:03.267Z,1009.95
2023-01-10T07:18:03.228Z,1009.96
2023-01-10T07:19:02.780Z,1010.00
2023-01-10T07:20:03.102Z,1009.99
2023-01-10T07:21:03.207Z,1010.01
2023-01-10T07:22:02.905Z,1009.98
2023-01-10T07:23:03.351Z,1009.97
2023-01-10T07:24:03.234Z,1009.96
2023-01-10T07:25:02.785Z,1009.94
2023-01-10T07:26:02.892Z,1009.98
2023-01-10T07:27:02.565Z,1009.99
2023-01-10T07:28:02.413Z,1010.01
2023-01-10T07:29:02.624Z,1010.07
2023-01-10T07:30:02.391Z,1010.09
2023-01-10T07:31:02.575Z,1010.14
2023-01-10T07:32:03.395Z,1010.12
2023-01-10T07:33:03.120Z,1010.17
2023-01-10T07:34:03.329Z,1010.13
2023-01-10T07:35:02.931Z,1010.16
2023-01-10T07:36:03.412Z,1010.18
2023-01-10T07:37:02.416Z,1010.17
2023-01-10T07:38:02.703Z,1010.18
2023-01-10T07:39:02.690Z,1010.21
2023-01-10T07:40:02.435Z,1010.21
2023-01-10T07:41:02.465Z,1010.23
2023-01-10T07:42:02.831Z,1010.24
2023-01-10T07:43:03.220Z,1010.24
2023-01-10T07:44:03.195Z,1010.25
2023-01-10T07:45:02.840Z,1010.27
2023-01-10T07:46:03.093Z,1010.30
2023-01-10T07:47:03.290Z,1010.32
2023-01-10T07:48:02.792Z,1010.34
2023-01-10T07:49:03.058Z,1010.33
2023-01-10T07:50:02.778Z,1010.33
2023-01-10T07:51:03.225Z,1010.31
2023-01-10T07:52:02.625Z,1010.35
2023-01-10T07:53:02.671Z,1010.40
2023-01-10T07:54:02.484Z,1010.41
2023-01-10T07:55:02.405Z,1010.47
2023-01-10T07:56:02.291Z,1010.46
2023-01-10T07:57:02.997Z,1010.53
2023-01-10T07:58:02.597Z,1010.54
2023-01-10T07:59:03.009Z,1010.51
2023-01-10T08:00:02.677Z,1010.53
2023-01-10T08:01:02.845Z,1010.55
2023-01-10T08:02:02.271Z,1010.59
2023-01-10T08:03:02.272Z,1010.60
2023-01-10T08:04:02.151Z,1010.61
2023-01-10T08:05:01.820Z,1010.64
2023-01-10T08:06:02.024Z,1010.67
2023-01-10T08:07:02.356Z,1010.70
2023-01-10T08:08:02.263Z,1010.74
2023-01-10T08:09:02.305Z,1010.72
2023-01-10T08:10:02.698Z,1010.70
2023-01-10T08:11:02.240Z,1010.73
2023-01-10T08:12:02.151Z,1010.74
2023-01-10T08:13:16.978Z,1010.74
2023-01-10T08:14:01.903Z,1010.72
2023-01-10T08:15:02.054Z,1010.74
2023-01-10T08:16:01.814Z,1010.67
2023-01-10T08:17:02.266Z,1010.69
2023-01-10T08:18:04.161Z,1010.73
2023-01-10T08:19:01.979Z,1010.76
2023-01-10T08:20:01.783Z,1010.73
2023-01-10T08:21:01.653Z,1010.75
2023-01-10T08:22:01.787Z,1010.78
2023-01-10T08:23:02.087Z,1010.79
2023-01-10T08:24:02.063Z,1010.80
2023-01-10T08:25:01.947Z,1010.83
2023-01-10T08:26:01.993Z,1010.76
2023-01-10T08:27:02.571Z,1010.76
2023-01-10T08:28:01.897Z,1010.80
2023-01-10T08:29:01.982Z,1010.81
2023-01-10T08:30:02.179Z,1010.83
2023-01-10T08:31:01.981Z,1010.86
2023-01-10T08:32:02.082Z,1010.86
2023-01-10T08:33:01.698Z,1010.91
2023-01-10T08:34:01.699Z,1010.92
2023-01-10T08:35:01.464Z,1010.92
2023-01-10T08:36:02.005Z,1010.98
2023-01-10T08:37:01.935Z,1010.95
2023-01-10T08:38:02.392Z,1010.98
2023-01-10T08:39:01.953Z,1010.99
2023-01-10T08:40:02.281Z,1010.97
2023-01-10T08:41:01.893Z,1010.96
2023-01-10T08:42:01.487Z,1010.94
2023-01-10T08:43:01.992Z,1010.97
2023-01-10T08:44:01.927Z,1010.95
2023-01-10T08:45:01.908Z,1010.96
2023-01-10T08:46:02.082Z,1010.94
2023-01-10T08:47:01.599Z,1010.95
2023-01-10T08:48:01.881Z,1010.98
2023-01-10T08:49:01.686Z,1010.93
2023-01-10T08:50:02.021Z,1010.99
2023-01-10T08:51:02.022Z,1011.00
2023-01-10T08:52:02.369Z,1011.00
2023-01-10T08:53:02.110Z,1011.03
2023-01-10T08:54:01.828Z,1011.01
2023-01-10T08:55:02.151Z,1011.04
2023-01-10T08:56:03.205Z,1011.00
2023-01-10T08:57:01.976Z,1010.99
2023-01-10T08:58:02.231Z,1011.01
2023-01-10T08:59:02.585Z,1010.98
2023-01-10T09:00:02.477Z,1011.04
2023-01-10T09:01:02.294Z,1011.07
2023-01-10T09:02:03.098Z,1011.03
2023-01-10T09:03:03.035Z,1011.02
2023-01-10T09:04:02.936Z,1011.02
2023-01-10T09:05:04.882Z,1011.05
2023-01-10T09:06:03.400Z,1011.07
2023-01-10T09:07:02.498Z,1011.09
2023-01-10T09:08:02.556Z,1011.13
2023-01-10T09:09:02.965Z,1011.15
2023-01-10T09:10:03.006Z,1011.15
2023-01-10T09:11:02.458Z,1011.18
2023-01-10T09:12:02.926Z,1011.19
2023-01-10T09:13:02.667Z,1011.17
2023-01-10T09:14:03.097Z,1011.16
2023-01-10T09:15:02.763Z,1011.16
2023-01-10T09:16:03.180Z,1011.16
2023-01-10T09:17:02.976Z,1011.18
2023-01-10T09:18:02.635Z,1011.17
2023-01-10T09:19:02.948Z,1011.14
2023-01-10T09:20:02.917Z,1011.15
2023-01-10T09:21:02.773Z,1011.14
2023-01-10T09:22:02.738Z,1011.18
2023-01-10T09:23:03.120Z,1011.20
2023-01-10T09:24:02.763Z,1011.20
2023-01-10T09:25:03.282Z,1011.21
2023-01-10T09:26:03.070Z,1011.21
2023-01-10T09:27:03.132Z,1011.24
2023-01-10T09:28:03.668Z,1011.22
2023-01-10T09:29:03.627Z,1011.24
2023-01-10T09:30:03.703Z,1011.26
2023-01-10T09:31:03.201Z,1011.25
2023-01-10T09:32:02.359Z,1011.30
2023-01-10T09:33:02.354Z,1011.30
2023-01-10T09:34:02.910Z,1011.29
2023-01-10T09:35:02.766Z,1011.26
2023-01-10T09:36:02.692Z,1011.21
2023-01-10T09:37:03.065Z,1011.21
2023-01-10T09:38:02.790Z,1011.26
2023-01-10T09:39:02.659Z,1011.25
2023-01-10T09:40:02.840Z,1011.24
2023-01-10T09:41:02.677Z,1011.23
2023-01-10T09:42:02.171Z,1011.28
2023-01-10T09:43:02.635Z,1011.27
2023-01-10T09:44:02.752Z,1011.29
2023-01-10T09:45:02.674Z,1011.30
2023-01-10T09:46:02.181Z,1011.28
2023-01-10T09:47:06.203Z,1011.24
2023-01-10T09:48:02.448Z,1011.27
2023-01-10T09:49:02.728Z,1011.30
2023-01-10T09:50:02.362Z,1011.33
2023-01-10T09:51:02.589Z,1011.33
2023-01-10T09:52:03.148Z,1011.29
2023-01-10T09:53:02.945Z,1011.33
2023-01-10T09:54:11.287Z,1011.35
2023-01-10T09:55:03.798Z,1011.34
2023-01-10T09:56:03.158Z,1011.36
2023-01-10T09:57:02.391Z,1011.35
2023-01-10T09:58:02.199Z,1011.31
2023-01-10T09:59:02.637Z,1011.32
2023-01-10T10:00:02.662Z,1011.34
2023-01-10T10:01:02.779Z,1011.31
2023-01-10T10:02:02.427Z,1011.32
2023-01-10T10:03:02.145Z,1011.30
2023-01-10T10:04:02.239Z,1011.33
2023-01-10T10:05:02.230Z,1011.30
2023-01-10T10:06:11.700Z,1011.32
2023-01-10T10:07:02.920Z,1011.29
2023-01-10T10:08:02.619Z,1011.30
2023-01-10T10:09:04.866Z,1011.33
2023-01-10T10:10:02.937Z,1011.36
2023-01-10T10:11:02.926Z,1011.35
2023-01-10T10:12:02.402Z,1011.38
2023-01-10T10:13:02.272Z,1011.32
2023-01-10T10:14:02.203Z,1011.36
2023-01-10T10:15:02.530Z,1011.33
2023-01-10T10:16:02.301Z,1011.30
2023-01-10T10:17:01.875Z,1011.23
2023-01-10T10:18:02.143Z,1011.25
2023-01-10T10:19:02.115Z,1011.22
2023-01-10T10:20:01.704Z,1011.22
2023-01-10T10:21:01.829Z,1011.24
2023-01-10T10:22:02.640Z,1011.20
2023-01-10T10:23:02.463Z,1011.22
2023-01-10T10:24:02.136Z,1011.19
2023-01-10T10:25:02.153Z,1011.17
2023-01-10T10:26:02.653Z,1011.21
2023-01-10T10:27:02.706Z,1011.20
2023-01-10T10:28:02.330Z,1011.15
2023-01-10T10:29:02.782Z,1011.11
2023-01-10T10:30:02.548Z,1011.15
2023-01-10T10:31:02.926Z,1011.16
2023-01-10T10:32:02.726Z,1011.16
2023-01-10T10:33:02.656Z,1011.12
2023-01-10T10:34:02.453Z,1011.12
2023-01-10T10:35:02.715Z,1011.15
2023-01-10T10:36:02.652Z,1011.15
2023-01-10T10:37:01.728Z,1011.14
2023-01-10T10:38:01.441Z,1011.15
2023-01-10T10:39:01.728Z,1011.11
2023-01-10T10:40:01.796Z,1011.08
2023-01-10T10:41:01.497Z,1011.06
2023-01-10T10:42:02.430Z,1011.06
2023-01-10T10:43:02.277Z,1011.07
2023-01-10T10:44:02.440Z,1011.05
2023-01-10T10:45:02.210Z,1011.14
2023-01-10T10:46:02.502Z,1011.08
2023-01-10T10:47:02.700Z,1011.10
2023-01-10T10:48:02.891Z,1011.06
2023-01-10T10:49:02.351Z,1011.07
2023-01-10T10:50:02.264Z,1011.05
2023-01-10T10:51:02.699Z,1011.06
2023-01-10T10:52:02.258Z,1011.03
2023-01-10T10:53:02.296Z,1011.03
2023-01-10T10:54:01.756Z,1011.08
2023-01-10T10:55:01.814Z,1011.10
2023-01-10T10:56:02.313Z,1011.14
2023-01-10T10:57:02.775Z,1011.10
2023-01-10T10:58:02.403Z,1011.14
2023-01-10T10:59:02.527Z,1011.21
2023-01-10T11:00:02.282Z,1011.21
2023-01-10T11:01:02.542Z,1011.26
2023-01-10T11:02:03.366Z,1011.25
2023-01-10T11:03:02.905Z,1011.25
2023-01-10T11:04:03.415Z,1011.21
2023-01-10T11:05:03.023Z,1011.20
2023-01-10T11:06:03.279Z,1011.14
2023-01-10T11:07:03.059Z,1011.12
2023-01-10T11:08:03.127Z,1011.15
2023-01-10T11:09:03.523Z,1011.14
2023-01-10T11:10:03.534Z,1011.12
2023-01-10T11:11:03.135Z,1011.09
2023-01-10T11:12:02.725Z,1011.04
2023-01-10T11:13:02.794Z,1011.03
2023-01-10T11:14:02.411Z,1011.06
2023-01-10T11:15:02.263Z,1011.01
2023-01-10T11:16:02.793Z,1010.96
2023-01-10T11:17:02.797Z,1010.95
2023-01-10T11:18:02.781Z,1010.92
2023-01-10T11:19:03.394Z,1011.03
2023-01-10T11:20:02.925Z,1010.97
2023-01-10T11:21:02.986Z,1010.92
2023-01-10T11:22:03.392Z,1010.96
2023-01-10T11:23:03.125Z,1010.94
2023-01-10T11:24:02.980Z,1010.94
2023-01-10T11:25:03.150Z,1010.93
2023-01-10T11:26:03.384Z,1010.94
2023-01-10T11:27:03.102Z,1010.90
2023-01-10T11:28:03.119Z,1010.94
2023-01-10T11:29:02.645Z,1011.00
2023-01-10T11:30:02.664Z,1010.96
2023-01-10T11:31:03.039Z,1010.97
2023-01-10T11:32:03.515Z,1010.94
2023-01-10T11:33:03.445Z,1010.97
2023-01-10T11:34:03.215Z,1010.92
2023-01-10T11:35:03.530Z,1010.95
2023-01-10T11:36:03.436Z,1010.87
2023-01-10T11:37:02.044Z,1010.90
2023-01-10T11:38:02.362Z,1010.88
2023-01-10T11:39:02.485Z,1010.86
2023-01-10T11:40:02.061Z,1010.85
2023-01-10T11:41:02.688Z,1010.82
2023-01-10T11:42:02.724Z,1010.80
2023-01-10T11:43:03.289Z,1010.77
2023-01-10T11:44:02.789Z,1010.77
2023-01-10T11:45:03.383Z,1010.73
2023-01-10T11:46:03.258Z,1010.73
2023-01-10T11:47:03.234Z,1010.78
2023-01-10T11:48:02.358Z,1010.75
2023-01-10T11:49:07.831Z,1010.77
2023-01-10T11:50:02.287Z,1010.79
2023-01-10T11:51:02.633Z,1010.80
2023-01-10T11:52:02.571Z,1010.79
2023-01-10T11:53:03.040Z,1010.83
2023-01-10T11:54:03.022Z,1010.81
2023-01-10T11:55:03.084Z,1010.81
2023-01-10T11:56:02.762Z,1010.82
2023-01-10T11:57:03.370Z,1010.80
2023-01-10T11:58:02.885Z,1010.74
2023-01-10T11:59:03.097Z,1010.74
2023-01-10T12:00:02.719Z,1010.78
2023-01-10T12:01:02.676Z,1010.81
2023-01-10T12:02:02.633Z,1010.85
2023-01-10T12:03:02.682Z,1010.84
2023-01-10T12:04:02.167Z,1010.82
2023-01-10T12:05:02.675Z,1010.78